Time;durP1;ratioP1;P1;durP2;ratioP2;P2;SDS_P1;SDS_P2;PMS_P1;PMS_P2;Temp;Humidity;BMP_temperature;BMP_pressure;BME280_temperature;BME280_humidity;BME280_pressure;Samples;Min_cycle;Max_cycle;Signal;HPM_P1;HPM_P2
2024/04/01 00:00:38;;;;;;;6.13;1.30;;;10.50;99.90;;;;;;5038781;28;20041;-70
2024/04/01 00:03:04;;;;;;;6.43;1.63;;;10.40;99.90;;;;;;5035041;28;20037;-70
2024/04/01 00:05:30;;;;;;;16.83;1.77;;;10.40;99.90;;;;;;5037757;28;20033;-70
2024/04/01 00:07:56;;;;;;;4.25;1.33;;;10.30;99.90;;;;;;5036874;28;20495;-72
2024/04/01 00:10:23;;;;;;;6.25;1.88;;;10.30;99.90;;;;;;5033631;28;20120;-69
2024/04/01 00:12:48;;;;;;;5.25;1.77;;;10.20;99.90;;;;;;5032814;28;20091;-68
2024/04/01 00:15:16;;;;;;;4.47;1.85;;;10.20;99.90;;;;;;5036664;28;20046;-70
2024/04/01 00:17:45;;;;;;;4.10;1.23;;;10.20;99.90;;;;;;5042442;28;20083;-71
2024/04/01 00:20:11;;;;;;;11.90;1.77;;;10.20;99.90;;;;;;5041000;28;20131;-70
2024/04/01 00:22:37;;;;;;;6.07;1.58;;;10.20;99.90;;;;;;5031617;28;20124;-70
2024/04/01 00:25:03;;;;;;;6.40;1.83;;;10.10;99.90;;;;;;5035496;28;20037;-71
2024/04/01 00:27:28;;;;;;;4.57;1.85;;;10.20;99.90;;;;;;5035942;28;20033;-70
2024/04/01 00:29:54;;;;;;;8.57;2.50;;;10.10;99.90;;;;;;5037242;28;20064;-71
2024/04/01 00:32:20;;;;;;;5.53;2.22;;;10.10;99.90;;;;;;5037196;28;20135;-69
2024/04/01 00:34:45;;;;;;;9.65;2.28;;;10.10;99.90;;;;;;5029308;28;20048;-70
2024/04/01 00:37:11;;;;;;;7.00;2.63;;;10.10;99.90;;;;;;5034228;28;20037;-70
2024/04/01 00:39:36;;;;;;;9.57;2.42;;;10.10;99.90;;;;;;5033787;28;20045;-70
2024/04/01 00:42:02;;;;;;;5.15;2.15;;;10.10;99.90;;;;;;5040429;28;20451;-68
2024/04/01 00:44:28;;;;;;;7.78;2.80;;;10.00;99.90;;;;;;5037653;28;20039;-70
2024/04/01 00:46:54;;;;;;;5.90;2.63;;;10.00;99.90;;;;;;5032573;28;20064;-71
2024/04/01 00:49:21;;;;;;;8.10;1.98;;;10.00;99.90;;;;;;5038273;28;20033;-70
2024/04/01 00:51:47;;;;;;;6.28;1.90;;;10.00;99.90;;;;;;5034353;28;20087;-69
2024/04/01 00:54:15;;;;;;;6.90;2.13;;;9.90;99.90;;;;;;5040895;28;20037;-71
2024/04/01 00:56:45;;;;;;;6.53;2.00;;;10.00;99.90;;;;;;5036166;28;20056;-71
2024/04/01 00:59:13;;;;;;;5.10;1.88;;;9.90;99.90;;;;;;5035059;28;20042;-70
2024/04/01 01:01:39;;;;;;;4.55;1.67;;;9.90;99.90;;;;;;5031897;28;20087;-68
2024/04/01 01:04:05;;;;;;;22.05;2.13;;;9.90;99.90;;;;;;5031242;28;20037;-70
2024/04/01 01:06:32;;;;;;;3.25;1.58;;;9.90;99.90;;;;;;5037720;28;20059;-70
2024/04/01 01:08:58;;;;;;;5.18;2.50;;;9.80;99.90;;;;;;5032950;28;20034;-71
2024/04/01 01:11:24;;;;;;;6.55;1.98;;;9.80;99.90;;;;;;5036058;28;20044;-71
2024/04/01 01:13:49;;;;;;;6.63;2.13;;;9.80;99.90;;;;;;5033710;28;20034;-70
2024/04/01 01:16:15;;;;;;;5.93;1.70;;;9.80;99.90;;;;;;5031799;28;20090;-71
2024/04/01 01:18:41;;;;;;;2.75;1.63;;;9.70;99.90;;;;;;5041528;28;20106;-70
2024/04/01 01:21:08;;;;;;;5.85;1.77;;;9.80;99.90;;;;;;5035644;28;20041;-71
2024/04/01 01:23:34;;;;;;;5.93;1.95;;;9.70;99.90;;;;;;5037934;28;20086;-68
2024/04/01 01:26:00;;;;;;;3.88;2.38;;;9.70;99.90;;;;;;5038045;28;20029;-70
2024/04/01 01:28:26;;;;;;;3.45;1.60;;;9.70;99.90;;;;;;5038039;28;20099;-72
2024/04/01 01:30:52;;;;;;;3.63;1.80;;;9.70;99.90;;;;;;5039453;28;20040;-71
2024/04/01 01:33:18;;;;;;;7.07;2.15;;;9.70;99.90;;;;;;5035842;28;20045;-70
2024/04/01 01:35:44;;;;;;;4.25;2.15;;;9.70;99.90;;;;;;5038668;28;20513;-70
2024/04/01 01:38:12;;;;;;;3.60;1.42;;;9.60;99.90;;;;;;5036608;28;20033;-70
2024/04/01 01:40:39;;;;;;;5.00;1.67;;;9.60;99.90;;;;;;5039382;28;20418;-70
2024/04/01 01:43:04;;;;;;;4.60;1.35;;;9.60;99.90;;;;;;5035536;28;20083;-70
2024/04/01 01:45:30;;;;;;;4.82;1.50;;;9.60;99.90;;;;;;5039327;28;20566;-70
2024/04/01 01:47:56;;;;;;;6.30;1.65;;;9.50;99.90;;;;;;5037949;28;20029;-68
2024/04/01 01:50:22;;;;;;;2.80;1.67;;;9.50;99.90;;;;;;5034070;28;20038;-72
2024/04/01 01:52:48;;;;;;;6.40;1.58;;;9.50;99.90;;;;;;5038685;28;20415;-70
2024/04/01 01:55:13;;;;;;;4.82;2.28;;;9.60;99.90;;;;;;5043231;28;20056;-69
2024/04/01 01:57:39;;;;;;;4.95;1.70;;;9.50;99.90;;;;;;5042325;28;20033;-70
2024/04/01 02:00:05;;;;;;;5.25;1.80;;;9.50;99.90;;;;;;5037146;28;20087;-71
2024/04/01 02:02:32;;;;;;;5.75;2.15;;;9.50;99.90;;;;;;5036533;28;20041;-72
2024/04/01 02:04:59;;;;;;;3.25;1.40;;;9.50;99.90;;;;;;5040038;28;20844;-66
2024/04/01 02:07:24;;;;;;;3.78;1.40;;;9.40;99.90;;;;;;5033907;28;20034;-71
2024/04/01 02:09:50;;;;;;;5.97;2.05;;;9.50;99.90;;;;;;5039104;28;20033;-71
2024/04/01 02:12:16;;;;;;;2.78;1.25;;;9.50;99.90;;;;;;5036268;28;20044;-70
2024/04/01 02:14:41;;;;;;;2.40;1.23;;;9.40;99.90;;;;;;5039088;28;20029;-72
2024/04/01 02:17:07;;;;;;;1.67;1.10;;;9.40;99.90;;;;;;5031836;28;20033;-70
2024/04/01 02:19:34;;;;;;;3.25;1.27;;;9.40;99.90;;;;;;5038726;28;20522;-70
2024/04/01 02:22:00;;;;;;;6.18;1.27;;;9.40;99.90;;;;;;5034137;28;20029;-72
2024/04/01 02:24:26;;;;;;;4.30;1.42;;;9.40;99.90;;;;;;5036082;28;20056;-71
2024/04/01 02:26:52;;;;;;;2.58;1.10;;;9.40;99.90;;;;;;5039443;28;20047;-71
2024/04/01 02:29:18;;;;;;;2.88;1.25;;;9.30;99.90;;;;;;5040364;28;20102;-70
2024/04/01 02:31:44;;;;;;;2.40;1.10;;;9.30;99.90;;;;;;5036811;28;20049;-70
2024/04/01 02:34:09;;;;;;;5.40;1.90;;;9.30;99.90;;;;;;5033003;28;20038;-70
2024/04/01 02:36:36;;;;;;;3.85;1.27;;;9.30;99.90;;;;;;5035359;28;20041;-68
2024/04/01 02:39:02;;;;;;;1.60;1.05;;;9.30;99.90;;;;;;5035738;28;20069;-70
2024/04/01 02:41:28;;;;;;;4.97;1.23;;;9.30;99.90;;;;;;5040462;28;20417;-71
2024/04/01 02:43:54;;;;;;;2.63;1.33;;;9.20;99.90;;;;;;5038706;28;20036;-70
2024/04/01 02:46:20;;;;;;;4.70;1.52;;;9.20;99.90;;;;;;5037269;28;20055;-70
2024/04/01 02:48:45;;;;;;;3.88;1.52;;;9.20;99.90;;;;;;5038770;28;20116;-71
2024/04/01 02:51:11;;;;;;;2.38;1.40;;;9.20;99.90;;;;;;5035651;28;20494;-72
2024/04/01 02:53:36;;;;;;;4.72;1.52;;;9.20;99.90;;;;;;5047103;28;20047;-71
2024/04/01 02:56:02;;;;;;;7.50;1.33;;;9.20;99.90;;;;;;5039594;28;20041;-71
2024/04/01 02:58:28;;;;;;;2.70;1.00;;;9.20;99.90;;;;;;5038060;28;20037;-71
2024/04/01 03:00:53;;;;;;;5.68;1.00;;;9.20;99.90;;;;;;5032367;28;20037;-72
2024/04/01 03:03:20;;;;;;;4.68;1.25;;;9.20;99.90;;;;;;5039292;28;20045;-70
2024/04/01 03:05:46;;;;;;;2.53;1.25;;;9.20;99.90;;;;;;5037611;28;20033;-71
2024/04/01 03:08:11;;;;;;;2.58;1.20;;;9.20;99.90;;;;;;5036641;28;20051;-71
2024/04/01 03:10:37;;;;;;;6.45;1.33;;;9.20;99.90;;;;;;5038022;28;20029;-71
2024/04/01 03:13:06;;;;;;;2.13;1.60;;;9.20;99.90;;;;;;5033803;28;20046;-70
2024/04/01 03:15:34;;;;;;;2.03;0.80;;;9.20;99.90;;;;;;5037415;28;20041;-72
2024/04/01 03:18:00;;;;;;;1.55;0.90;;;9.10;99.90;;;;;;5037392;28;20041;-70
2024/04/01 03:20:26;;;;;;;4.50;1.83;;;9.10;99.90;;;;;;5041876;28;20029;-70
2024/04/01 03:22:52;;;;;;;2.47;0.98;;;9.10;99.90;;;;;;5033687;28;20044;-68
2024/04/01 03:25:18;;;;;;;2.92;1.63;;;9.10;99.90;;;;;;5051270;28;20047;-69
2024/04/01 03:27:44;;;;;;;7.97;1.58;;;9.10;99.90;;;;;;5036741;28;20490;-69
2024/04/01 03:30:10;;;;;;;2.17;1.10;;;9.10;99.90;;;;;;5026867;28;20041;-69
2024/04/01 03:32:36;;;;;;;3.17;0.95;;;9.10;99.90;;;;;;5028654;28;20528;-69
2024/04/01 03:35:03;;;;;;;3.17;1.17;;;9.00;99.90;;;;;;5033521;28;20072;-69
2024/04/01 03:37:28;;;;;;;7.10;1.20;;;9.00;99.90;;;;;;5033163;28;20099;-70
2024/04/01 03:39:54;;;;;;;4.07;1.20;;;9.10;99.90;;;;;;5029326;28;20041;-70
2024/04/01 03:42:20;;;;;;;2.45;1.00;;;9.00;99.90;;;;;;5032330;28;20061;-70
2024/04/01 03:44:49;;;;;;;2.90;1.35;;;9.00;99.90;;;;;;5041569;28;20033;-71
2024/04/01 03:47:14;;;;;;;1.50;0.98;;;9.00;99.90;;;;;;5039703;28;20154;-70
2024/04/01 03:49:40;;;;;;;1.88;0.88;;;9.00;99.90;;;;;;5038214;28;20037;-69
2024/04/01 03:52:06;;;;;;;1.33;0.70;;;8.90;99.90;;;;;;5030679;28;20118;-71
2024/04/01 03:54:34;;;;;;;2.72;1.00;;;9.00;99.90;;;;;;5039341;28;20037;-70
2024/04/01 03:56:59;;;;;;;5.78;1.08;;;8.90;99.90;;;;;;5033329;28;20041;-70
2024/04/01 03:59:25;;;;;;;6.15;1.02;;;8.90;99.90;;;;;;5033383;28;20059;-70
2024/04/01 04:01:51;;;;;;;2.15;0.88;;;8.80;99.90;;;;;;5036131;28;20029;-70
2024/04/01 04:04:17;;;;;;;1.73;1.02;;;8.90;99.90;;;;;;5030186;28;20053;-70
2024/04/01 04:06:42;;;;;;;3.67;1.27;;;8.90;99.90;;;;;;5031493;28;20040;-71
2024/04/01 04:09:17;;;;;;;4.13;0.90;;;8.90;99.90;;;;;;5040144;28;20103;-69
2024/04/01 04:11:49;;;;;;;2.47;1.35;;;8.90;99.90;;;;;;5029190;28;20444;-72
2024/04/01 04:14:23;;;;;;;2.67;0.90;;;8.90;99.90;;;;;;5030676;28;20033;-68
2024/04/01 04:16:49;;;;;;;2.10;0.90;;;8.90;99.90;;;;;;5026754;28;20096;-71
2024/04/01 04:19:15;;;;;;;2.40;0.80;;;8.80;99.90;;;;;;5034341;28;20044;-68
2024/04/01 04:21:41;;;;;;;1.75;1.00;;;8.90;99.90;;;;;;5040570;28;20036;-66
2024/04/01 04:24:07;;;;;;;1.98;0.80;;;8.90;99.90;;;;;;5036272;28;20484;-68
2024/04/01 04:26:33;;;;;;;1.65;0.70;;;8.90;99.90;;;;;;5043240;28;20037;-70
2024/04/01 04:28:58;;;;;;;0.93;0.70;;;8.90;99.90;;;;;;5030120;28;20036;-70
2024/04/01 04:31:24;;;;;;;2.03;0.85;;;9.00;99.90;;;;;;5037093;28;20029;-69
2024/04/01 04:33:50;;;;;;;3.28;0.90;;;9.00;99.90;;;;;;5044893;28;20045;-70
2024/04/01 04:36:16;;;;;;;2.65;1.00;;;9.10;99.90;;;;;;5043228;28;20033;-68
2024/04/01 04:38:41;;;;;;;3.58;0.85;;;9.00;99.90;;;;;;5043690;28;20033;-68
2024/04/01 04:41:07;;;;;;;1.98;0.93;;;9.00;99.90;;;;;;5028852;28;20107;-68
2024/04/01 04:43:32;;;;;;;2.50;1.17;;;9.00;99.90;;;;;;5032807;28;20623;-72
2024/04/01 04:45:59;;;;;;;2.85;1.10;;;9.00;99.90;;;;;;5031996;28;20049;-71
2024/04/01 04:48:26;;;;;;;2.45;1.05;;;9.00;99.90;;;;;;5032296;28;20029;-70
2024/04/01 04:50:52;;;;;;;4.82;1.30;;;9.00;99.90;;;;;;5034159;28;20576;-72
2024/04/01 04:53:18;;;;;;;4.65;1.88;;;9.00;99.90;;;;;;5034127;28;20119;-71
2024/04/01 04:55:44;;;;;;;3.17;1.00;;;9.00;99.90;;;;;;5038302;28;20037;-70
2024/04/01 04:58:09;;;;;;;1.77;1.13;;;9.00;99.90;;;;;;5035157;28;20045;-71
2024/04/01 05:00:35;;;;;;;3.55;1.27;;;9.00;99.90;;;;;;5037149;28;20051;-70
2024/04/01 05:03:01;;;;;;;2.55;1.17;;;9.00;99.90;;;;;;5036752;28;20045;-70
2024/04/01 05:05:26;;;;;;;4.20;1.40;;;9.00;99.90;;;;;;5040008;28;20099;-70
2024/04/01 05:07:52;;;;;;;3.72;1.85;;;9.00;99.90;;;;;;5040881;28;20562;-70
2024/04/01 05:10:18;;;;;;;2.63;1.10;;;8.90;99.90;;;;;;5036988;28;20052;-68
2024/04/01 05:12:43;;;;;;;2.45;1.25;;;9.00;99.90;;;;;;5041209;28;20033;-70
2024/04/01 05:15:09;;;;;;;4.85;1.30;;;9.00;99.90;;;;;;5039929;28;20092;-69
2024/04/01 05:17:36;;;;;;;4.05;1.13;;;9.00;99.90;;;;;;5037733;28;20164;-72
2024/04/01 05:20:04;;;;;;;3.92;1.13;;;9.00;99.90;;;;;;5043664;28;20505;-70
2024/04/01 05:22:29;;;;;;;2.28;1.13;;;9.00;99.90;;;;;;5036610;28;20503;-70
2024/04/01 05:24:56;;;;;;;3.10;1.10;;;9.00;99.90;;;;;;5036831;28;20045;-67
2024/04/01 05:27:21;;;;;;;2.33;1.10;;;9.00;99.90;;;;;;5041780;28;20025;-70
2024/04/01 05:30:09;;;;;;;1.88;1.00;;;9.00;99.90;;;;;;5039983;28;20040;-70
2024/04/01 05:32:35;;;;;;;2.10;0.90;;;9.00;99.90;;;;;;5038189;28;20109;-69
2024/04/01 05:35:01;;;;;;;2.03;1.15;;;9.00;99.90;;;;;;5037254;28;20044;-69
2024/04/01 05:37:27;;;;;;;2.60;1.27;;;9.00;99.90;;;;;;5038634;28;20041;-69
2024/04/01 05:39:54;;;;;;;4.10;1.67;;;9.00;99.90;;;;;;5035059;28;20091;-69
2024/04/01 05:42:20;;;;;;;2.03;1.40;;;9.00;99.90;;;;;;5033989;28;20402;-68
2024/04/01 05:44:49;;;;;;;3.30;1.10;;;9.00;99.90;;;;;;5037651;28;20056;-71
2024/04/01 05:47:14;;;;;;;4.55;1.13;;;9.10;99.90;;;;;;5041110;28;20116;-68
2024/04/01 05:49:40;;;;;;;2.08;1.25;;;9.10;99.90;;;;;;5039147;28;20116;-69
2024/04/01 05:52:06;;;;;;;3.58;0.95;;;9.10;99.90;;;;;;5038948;28;20106;-70
2024/04/01 05:54:32;;;;;;;3.50;1.13;;;9.10;99.90;;;;;;5038490;28;20033;-73
2024/04/01 05:56:59;;;;;;;4.38;0.80;;;9.10;99.90;;;;;;5038158;28;20036;-72
2024/04/01 05:59:25;;;;;;;1.65;0.90;;;9.10;99.90;;;;;;5039311;28;20029;-71
2024/04/01 06:01:56;;;;;;;3.22;1.10;;;9.10;99.90;;;;;;5038013;28;20029;-71
2024/04/01 06:04:23;;;;;;;2.38;1.33;;;9.10;99.90;;;;;;5035598;28;20038;-70
2024/04/01 06:06:48;;;;;;;3.78;1.33;;;9.20;99.90;;;;;;5038998;28;20120;-71
2024/04/01 06:09:14;;;;;;;1.13;0.57;;;9.20;99.90;;;;;;5043448;28;20215;-67
2024/04/01 06:11:41;;;;;;;2.40;1.10;;;9.20;99.90;;;;;;5039564;28;20116;-69
2024/04/01 06:14:07;;;;;;;1.88;0.88;;;9.20;99.90;;;;;;5035902;28;20037;-72
2024/04/01 06:16:34;;;;;;;4.25;0.95;;;9.20;99.90;;;;;;5036722;28;20494;-70
2024/04/01 06:18:59;;;;;;;1.52;0.73;;;9.20;99.90;;;;;;5043744;28;20506;-71
2024/04/01 06:21:25;;;;;;;3.03;1.05;;;9.30;99.90;;;;;;5039963;28;20088;-71
2024/04/01 06:23:51;;;;;;;1.48;1.13;;;9.30;99.90;;;;;;5036906;28;20545;-70
2024/04/01 06:26:16;;;;;;;2.53;1.15;;;9.30;99.90;;;;;;5039036;28;20094;-70
2024/04/01 06:28:44;;;;;;;1.83;1.30;;;9.30;99.90;;;;;;5045196;28;20037;-70
2024/04/01 06:31:10;;;;;;;2.85;1.10;;;9.40;99.90;;;;;;5047410;28;20041;-70
2024/04/01 06:33:35;;;;;;;2.33;0.90;;;9.40;99.90;;;;;;5043877;28;20075;-70
2024/04/01 06:36:04;;;;;;;2.80;1.17;;;9.40;99.90;;;;;;5045021;28;20044;-70
2024/04/01 06:38:30;;;;;;;2.80;1.38;;;9.40;99.90;;;;;;5044713;28;20371;-71
2024/04/01 06:40:56;;;;;;;2.15;1.15;;;9.50;99.90;;;;;;5043401;28;20028;-70
2024/04/01 06:43:23;;;;;;;2.95;1.00;;;9.50;99.90;;;;;;5041061;28;20037;-72
2024/04/01 06:45:52;;;;;;;2.63;1.00;;;9.60;99.90;;;;;;5038680;28;20038;-71
2024/04/01 06:48:18;;;;;;;2.28;1.05;;;9.60;99.90;;;;;;5036654;28;20056;-69
2024/04/01 06:50:43;;;;;;;3.95;1.70;;;9.70;99.90;;;;;;5038629;28;20402;-69
2024/04/01 06:53:09;;;;;;;2.05;1.33;;;9.70;99.90;;;;;;5037184;28;20051;-70
2024/04/01 06:55:34;;;;;;;3.63;1.33;;;9.70;99.90;;;;;;5042793;28;20068;-70
2024/04/01 06:58:00;;;;;;;2.15;1.40;;;9.80;99.90;;;;;;5037624;28;20037;-71
2024/04/01 07:00:25;;;;;;;3.33;1.73;;;9.80;99.90;;;;;;5029543;28;20036;-69
2024/04/01 07:02:51;;;;;;;7.60;1.55;;;9.80;99.90;;;;;;5043100;28;20044;-70
2024/04/01 07:05:17;;;;;;;2.58;1.80;;;9.80;99.90;;;;;;5039113;28;20060;-69
2024/04/01 07:07:42;;;;;;;3.33;1.35;;;9.90;99.90;;;;;;5039904;28;20128;-69
2024/04/01 07:10:08;;;;;;;3.45;1.52;;;9.90;99.90;;;;;;5044095;28;20045;-70
2024/04/01 07:12:33;;;;;;;5.72;1.92;;;9.90;99.90;;;;;;5035960;28;20064;-72
2024/04/01 07:14:59;;;;;;;4.57;1.85;;;10.00;99.90;;;;;;5034878;28;20057;-69
2024/04/01 07:17:25;;;;;;;3.17;1.95;;;10.00;99.90;;;;;;5031625;28;20112;-70
2024/04/01 07:19:50;;;;;;;2.92;1.80;;;10.10;99.90;;;;;;5039978;28;20037;-71
2024/04/01 07:22:16;;;;;;;3.63;1.80;;;10.10;99.90;;;;;;5043840;28;20040;-69
2024/04/01 07:24:41;;;;;;;5.72;1.63;;;10.10;99.90;;;;;;5040732;28;20032;-70
2024/04/01 07:27:07;;;;;;;5.05;1.92;;;10.10;99.90;;;;;;5037404;28;20037;-71
2024/04/01 07:29:33;;;;;;;5.85;1.80;;;10.10;99.90;;;;;;5039278;28;20028;-71
2024/04/01 07:31:58;;;;;;;3.92;2.10;;;10.20;99.90;;;;;;5042557;28;20055;-70
2024/04/01 07:34:24;;;;;;;3.42;1.90;;;10.20;99.90;;;;;;5036755;28;20164;-72
2024/04/01 07:36:49;;;;;;;5.07;2.03;;;10.20;99.90;;;;;;5039689;28;20025;-68
2024/04/01 07:39:16;;;;;;;5.47;2.17;;;10.20;99.90;;;;;;5040380;28;20174;-71
2024/04/01 07:41:42;;;;;;;5.53;2.05;;;10.20;99.90;;;;;;5031208;28;20036;-70
2024/04/01 07:44:07;;;;;;;4.95;2.50;;;10.20;99.90;;;;;;5032619;28;20049;-70
2024/04/01 07:46:33;;;;;;;3.95;2.03;;;10.20;99.90;;;;;;5033618;28;20418;-68
2024/04/01 07:48:59;;;;;;;2.97;1.95;;;10.20;99.90;;;;;;5037374;28;20569;-74
2024/04/01 07:51:24;;;;;;;3.35;1.88;;;10.20;99.90;;;;;;5027571;28;20048;-70
2024/04/01 07:53:50;;;;;;;5.57;2.47;;;10.20;99.90;;;;;;5038760;28;20028;-70
2024/04/01 07:56:16;;;;;;;7.32;2.58;;;10.30;99.90;;;;;;5045623;28;20025;-69
2024/04/01 07:58:41;;;;;;;9.98;3.20;;;10.30;99.90;;;;;;5034621;28;20028;-69
2024/04/01 08:01:08;;;;;;;6.38;2.08;;;10.30;99.90;;;;;;5038259;28;20029;-71
2024/04/01 08:03:34;;;;;;;4.07;2.42;;;10.40;99.90;;;;;;5036434;28;20033;-69
2024/04/01 08:06:00;;;;;;;3.75;2.20;;;10.40;99.90;;;;;;5028542;28;20022;-72
2024/04/01 08:08:25;;;;;;;4.80;1.83;;;10.40;99.90;;;;;;5021665;28;20025;-70
2024/04/01 08:10:51;;;;;;;5.22;2.35;;;10.40;99.90;;;;;;5023996;28;20033;-70
2024/04/01 08:13:17;;;;;;;4.25;2.10;;;10.40;99.90;;;;;;5024507;28;20116;-72
2024/04/01 08:15:42;;;;;;;4.97;2.70;;;10.40;99.90;;;;;;5020311;28;20053;-68
2024/04/01 08:18:08;;;;;;;4.35;3.05;;;10.50;99.90;;;;;;5022931;28;20415;-70
2024/04/01 08:20:34;;;;;;;3.85;2.05;;;10.50;99.90;;;;;;5022489;28;20048;-69
2024/04/01 08:22:59;;;;;;;3.85;2.17;;;10.50;99.90;;;;;;5024651;28;20045;-71
2024/04/01 08:25:25;;;;;;;4.93;2.20;;;10.60;99.90;;;;;;5022477;28;20041;-70
2024/04/01 08:27:51;;;;;;;4.68;2.20;;;10.50;99.90;;;;;;5024473;28;20037;-72
2024/04/01 08:30:17;;;;;;;11.93;2.80;;;10.60;99.90;;;;;;5021193;28;20038;-70
2024/04/01 08:32:42;;;;;;;3.28;2.17;;;10.60;99.90;;;;;;5030023;28;20572;-70
2024/04/01 08:35:08;;;;;;;2.72;1.65;;;10.60;99.90;;;;;;5034219;28;20040;-70
2024/04/01 08:37:33;;;;;;;11.73;2.13;;;10.60;99.90;;;;;;5028604;28;20064;-69
2024/04/01 08:39:59;;;;;;;4.78;1.80;;;10.70;99.90;;;;;;5033705;28;20386;-70
2024/04/01 08:42:26;;;;;;;10.45;2.20;;;10.70;99.90;;;;;;5018735;28;20524;-73
2024/04/01 08:44:58;;;;;;;3.03;1.90;;;10.70;99.90;;;;;;5015216;28;20043;-71
2024/04/01 08:47:29;;;;;;;2.63;1.70;;;10.80;99.90;;;;;;5034232;28;20044;-71
2024/04/01 08:50:08;;;;;;;4.32;1.80;;;10.80;99.90;;;;;;5029346;28;20044;-71
2024/04/01 08:52:42;;;;;;;4.40;2.17;;;10.80;99.90;;;;;;5032714;28;20041;-68
2024/04/01 08:55:08;;;;;;;6.30;2.33;;;10.80;99.90;;;;;;5031740;28;20037;-70
2024/04/01 08:57:35;;;;;;;4.43;2.25;;;10.90;99.90;;;;;;5031617;28;20033;-69
2024/04/01 09:00:02;;;;;;;5.15;2.03;;;10.90;99.90;;;;;;5024075;28;20045;-70
2024/04/01 09:02:28;;;;;;;2.67;1.83;;;11.00;99.90;;;;;;5026516;28;20102;-70
2024/04/01 09:04:54;;;;;;;4.00;1.90;;;11.00;99.90;;;;;;5035721;28;20048;-70
2024/04/01 09:07:20;;;;;;;4.63;1.88;;;11.10;99.90;;;;;;5035138;28;20033;-69
2024/04/01 09:09:45;;;;;;;4.03;1.90;;;11.20;99.90;;;;;;5030982;28;20733;-70
2024/04/01 09:12:12;;;;;;;3.88;1.42;;;11.20;99.90;;;;;;5039407;28;20128;-70
2024/04/01 09:14:38;;;;;;;2.10;1.52;;;11.20;99.90;;;;;;5029100;28;20041;-70
2024/04/01 09:17:04;;;;;;;3.63;1.65;;;11.30;99.90;;;;;;5033777;28;20099;-71
2024/04/01 09:19:30;;;;;;;3.03;1.77;;;11.30;99.90;;;;;;5032770;28;20087;-70
2024/04/01 09:21:57;;;;;;;3.70;2.13;;;11.30;99.90;;;;;;5032393;28;20129;-68
2024/04/01 09:24:23;;;;;;;5.75;1.63;;;11.30;99.90;;;;;;5029709;28;20080;-70
2024/04/01 09:26:49;;;;;;;3.85;1.52;;;11.40;99.90;;;;;;5038569;28;20036;-69
2024/04/01 09:29:15;;;;;;;3.70;1.75;;;11.40;99.90;;;;;;5031593;28;20041;-69
2024/04/01 09:31:40;;;;;;;2.33;1.25;;;11.50;99.90;;;;;;5027175;28;20049;-71
2024/04/01 09:34:06;;;;;;;3.08;1.50;;;11.50;99.90;;;;;;5031636;28;20538;-69
2024/04/01 09:36:33;;;;;;;2.60;1.42;;;11.60;99.90;;;;;;5024323;28;20040;-71
2024/04/01 09:38:59;;;;;;;2.28;1.00;;;11.70;99.90;;;;;;5023116;28;20035;-72
2024/04/01 09:41:24;;;;;;;2.45;1.25;;;11.70;99.90;;;;;;5034750;28;20033;-73
2024/04/01 09:43:57;;;;;;;2.55;1.48;;;11.70;99.90;;;;;;5034883;28;20068;-69
2024/04/01 09:46:24;;;;;;;2.08;1.17;;;11.80;99.90;;;;;;5040527;28;20033;-70
2024/04/01 09:48:51;;;;;;;8.07;2.33;;;11.70;99.90;;;;;;5031756;28;20034;-70
2024/04/01 09:51:19;;;;;;;2.65;1.20;;;11.80;99.90;;;;;;5034639;28;20059;-71
2024/04/01 09:53:46;;;;;;;9.52;1.45;;;11.80;99.90;;;;;;5029214;28;20033;-70
2024/04/01 09:56:39;;;;;;;2.63;1.30;;;11.70;99.90;;;;;;5033909;28;20033;-70
2024/04/01 09:59:25;;;;;;;4.05;1.55;;;11.70;99.90;;;;;;5026982;28;20099;-69
2024/04/01 10:02:28;;;;;;;5.68;1.92;;;11.70;99.90;;;;;;5035908;28;20079;-70
2024/04/01 10:05:38;;;;;;;4.85;1.70;;;11.70;99.90;;;;;;5035850;28;20685;-68
2024/04/01 10:08:41;;;;;;;4.88;1.80;;;11.70;99.90;;;;;;5035709;28;20041;-70
2024/04/01 10:11:38;;;;;;;3.90;1.52;;;11.70;99.90;;;;;;5026739;28;20111;-70
2024/04/01 10:14:21;;;;;;;5.57;1.77;;;11.80;99.90;;;;;;5036483;28;20041;-69
2024/04/01 10:17:12;;;;;;;5.57;2.05;;;11.80;99.90;;;;;;5034302;28;20167;-70
2024/04/01 10:20:15;;;;;;;4.35;2.08;;;11.80;99.90;;;;;;5042258;28;20033;-69
2024/04/01 10:23:06;;;;;;;3.47;1.52;;;11.80;99.90;;;;;;5038689;28;20068;-70
2024/04/01 10:25:48;;;;;;;7.97;1.23;;;11.80;99.90;;;;;;5033039;28;20502;-69
2024/04/01 10:28:42;;;;;;;7.07;1.77;;;11.80;99.90;;;;;;5034274;28;20061;-68
2024/04/01 10:31:28;;;;;;;7.57;1.63;;;11.80;99.90;;;;;;5035374;28;20026;-69
2024/04/01 10:34:03;;;;;;;3.88;1.20;;;11.80;99.90;;;;;;5029323;28;20041;-68
2024/04/01 10:36:48;;;;;;;8.25;0.95;;;11.80;99.90;;;;;;5036706;28;20607;-71
2024/04/01 10:39:29;;;;;;;3.65;1.30;;;11.90;99.90;;;;;;5031626;28;20037;-70
2024/04/01 10:42:00;;;;;;;1.98;0.88;;;11.80;99.90;;;;;;5024364;28;20037;-70
2024/04/01 10:44:36;;;;;;;5.55;1.45;;;11.80;99.90;;;;;;5036458;28;20437;-71
2024/04/01 10:47:32;;;;;;;4.30;1.60;;;11.90;99.90;;;;;;5035682;28;20077;-71
2024/04/01 10:50:23;;;;;;;2.55;0.98;;;11.90;99.90;;;;;;5032385;28;20470;-72
2024/04/01 10:53:07;;;;;;;;;;;11.80;99.90;;;;;;5028075;28;20052;-70
2024/04/01 10:56:05;;;;;;;5.35;1.25;;;11.80;99.90;;;;;;5043282;28;20397;-73
2024/04/01 10:59:01;;;;;;;5.05;1.33;;;11.70;99.90;;;;;;5036553;28;20040;-73
2024/04/01 11:01:48;;;;;;;3.20;1.20;;;11.70;99.90;;;;;;5023502;28;20530;-74
2024/04/01 11:04:44;;;;;;;3.42;1.48;;;11.80;99.90;;;;;;5044313;28;20401;-71
2024/04/01 11:07:30;;;;;;;6.95;1.20;;;11.80;99.90;;;;;;5031944;28;20037;-71
2024/04/01 11:10:41;;;;;;;3.63;0.75;;;11.80;99.90;;;;;;5039141;28;20057;-68
2024/04/01 11:13:28;;;;;;;7.85;1.48;;;11.80;99.90;;;;;;5029489;28;20085;-70
2024/04/01 11:15:57;;;;;;;2.35;0.68;;;11.90;99.90;;;;;;5020598;28;20060;-70
2024/04/01 11:18:38;;;;;;;5.30;1.23;;;11.80;99.90;;;;;;5030922;28;20090;-68
2024/04/01 11:21:17;;;;;;;4.28;0.70;;;11.90;99.90;;;;;;5032225;28;20454;-70
2024/04/01 11:24:20;;;;;;;4.60;1.00;;;11.90;99.90;;;;;;5024621;28;20037;-69
2024/04/01 11:27:14;;;;;;;5.00;0.80;;;12.00;99.90;;;;;;5020772;28;20048;-70
2024/04/01 11:29:58;;;;;;;5.63;0.95;;;12.00;99.90;;;;;;5028513;28;20112;-68
2024/04/01 11:32:30;;;;;;;3.30;0.88;;;12.00;99.90;;;;;;5020979;28;20047;-68
2024/04/01 11:35:15;;;;;;;6.20;2.00;;;12.00;99.90;;;;;;5026146;28;20044;-67
2024/04/01 11:37:55;;;;;;;4.47;0.80;;;12.00;99.90;;;;;;5020604;28;20547;-68
2024/04/01 11:40:27;;;;;;;4.75;1.35;;;12.00;99.90;;;;;;5028047;28;20037;-69
2024/04/01 11:42:58;;;;;;;7.15;1.83;;;12.00;99.90;;;;;;5025115;28;20033;-68
2024/04/01 11:45:29;;;;;;;7.60;1.13;;;12.00;99.90;;;;;;5024066;28;20026;-68
2024/04/01 11:47:56;;;;;;;3.60;0.80;;;12.00;99.90;;;;;;5031024;28;20061;-68
2024/04/01 11:50:22;;;;;;;2.67;0.73;;;12.10;99.90;;;;;;5036036;28;20041;-71
2024/04/01 11:53:01;;;;;;;9.05;2.17;;;12.20;99.90;;;;;;5023193;28;20402;-70
2024/04/01 11:55:27;;;;;;;3.70;1.17;;;12.30;99.90;;;;;;5026540;28;20502;-69
2024/04/01 11:57:53;;;;;;;6.15;0.90;;;12.40;99.90;;;;;;5028283;28;20037;-69
2024/04/01 12:00:19;;;;;;;2.30;0.88;;;12.40;99.90;;;;;;5027308;28;20048;-67
2024/04/01 12:02:55;;;;;;;3.22;0.80;;;12.50;99.90;;;;;;5020191;28;20446;-71
2024/04/01 12:05:21;;;;;;;5.07;1.20;;;12.60;99.90;;;;;;5036825;28;20387;-68
2024/04/01 12:07:51;;;;;;;3.60;0.82;;;12.70;99.90;;;;;;5035323;28;20040;-70
2024/04/01 12:10:17;;;;;;;5.13;1.42;;;12.80;99.90;;;;;;5038433;28;20551;-71
2024/04/01 12:12:47;;;;;;;2.67;1.20;;;12.90;99.90;;;;;;5036792;28;20116;-69
2024/04/01 12:15:21;;;;;;;2.20;0.90;;;12.90;99.90;;;;;;5023085;28;20033;-69
2024/04/01 12:17:49;;;;;;;4.63;0.90;;;13.00;99.90;;;;;;5033287;28;20056;-71
2024/04/01 12:20:15;;;;;;;2.05;0.70;;;13.00;99.90;;;;;;5040028;28;20055;-70
2024/04/01 12:22:41;;;;;;;2.47;0.70;;;13.10;99.90;;;;;;5032562;28;20025;-68
2024/04/01 12:25:16;;;;;;;2.58;0.82;;;13.20;99.90;;;;;;5036133;28;20052;-68
2024/04/01 12:27:43;;;;;;;2.72;0.60;;;13.30;99.90;;;;;;5033703;28;20037;-68
2024/04/01 12:30:09;;;;;;;1.27;0.90;;;13.50;99.90;;;;;;5026138;28;20406;-69
2024/04/01 12:32:41;;;;;;;3.47;0.73;;;13.50;99.90;;;;;;5036732;28;20406;-69
2024/04/01 12:35:10;;;;;;;2.90;0.70;;;13.60;99.90;;;;;;5032479;28;20036;-71
2024/04/01 12:37:40;;;;;;;2.75;0.57;;;13.70;99.90;;;;;;5033229;28;20037;-69
2024/04/01 12:40:07;;;;;;;1.60;0.63;;;13.70;99.90;;;;;;5030840;28;20028;-69
2024/04/01 12:42:35;;;;;;;3.97;1.17;;;13.60;99.90;;;;;;5037837;28;20056;-70
2024/04/01 12:45:02;;;;;;;149.25;14.00;;;13.60;99.90;;;;;;5038507;28;20148;-71
2024/04/01 12:47:28;;;;;;;46.20;4.38;;;13.60;99.90;;;;;;5039573;28;20036;-68
2024/04/01 12:50:02;;;;;;;5.75;0.82;;;13.70;99.90;;;;;;5037758;28;20580;-71
2024/04/01 12:52:53;;;;;;;2.40;0.60;;;13.70;99.90;;;;;;5039676;28;20072;-68
2024/04/01 12:55:26;;;;;;;3.25;0.60;;;13.70;99.90;;;;;;5021687;28;20049;-69
2024/04/01 12:58:13;;;;;;;7.32;0.98;;;13.80;99.90;;;;;;5017365;28;20037;-68
2024/04/01 13:00:42;;;;;;;7.72;0.75;;;13.90;99.90;;;;;;5036875;28;20047;-68
2024/04/01 13:03:41;;;;;;;2.28;0.45;;;13.90;99.90;;;;;;5031753;28;20060;-70